sensor_id;sensor_type;location;lat;lon;timestamp;P1;durP1;ratioP1;P2;durP2;ratioP2
40373;SDS011;26079;45.958;12.492;2022-08-01T00:01:11;4.85;;;2.63;;
40373;SDS011;26079;45.958;12.492;2022-08-01T00:03:37;3.05;;;2.75;;
40373;SDS011;26079;45.958;12.492;2022-08-01T00:06:03;2.83;;;2.63;;
40373;SDS011;26079;45.958;12.492;2022-08-01T00:08:29;2.30;;;2.10;;
40373;SDS011;26079;45.958;12.492;2022-08-01T00:10:54;2.80;;;2.58;;
40373;SDS011;26079;45.958;12.492;2022-08-01T00:13:20;2.85;;;2.30;;
40373;SDS011;26079;45.958;12.492;2022-08-01T00:15:46;3.70;;;2.60;;
40373;SDS011;26079;45.958;12.492;2022-08-01T00:18:11;4.07;;;2.30;;
40373;SDS011;26079;45.958;12.492;2022-08-01T00:20:37;2.97;;;2.65;;
40373;SDS011;26079;45.958;12.492;2022-08-01T00:23:03;2.70;;;2.35;;
40373;SDS011;26079;45.958;12.492;2022-08-01T00:25:28;2.80;;;2.58;;
40373;SDS011;26079;45.958;12.492;2022-08-01T00:27:54;3.15;;;2.88;;
40373;SDS011;26079;45.958;12.492;2022-08-01T00:30:20;14.95;;;3.97;;
40373;SDS011;26079;45.958;12.492;2022-08-01T00:32:45;4.55;;;2.60;;
40373;SDS011;26079;45.958;12.492;2022-08-01T00:35:11;3.88;;;2.47;;
40373;SDS011;26079;45.958;12.492;2022-08-01T00:37:38;7.47;;;2.60;;
40373;SDS011;26079;45.958;12.492;2022-08-01T00:40:04;3.22;;;3.03;;
40373;SDS011;26079;45.958;12.492;2022-08-01T00:42:30;3.55;;;3.15;;
40373;SDS011;26079;45.958;12.492;2022-08-01T00:44:56;3.55;;;3.00;;
40373;SDS011;26079;45.958;12.492;2022-08-01T00:47:22;2.70;;;2.50;;
40373;SDS011;26079;45.958;12.492;2022-08-01T00:49:47;2.17;;;1.98;;
40373;SDS011;26079;45.958;12.492;2022-08-01T00:52:13;3.28;;;2.63;;
40373;SDS011;26079;45.958;12.492;2022-08-01T00:54:39;2.83;;;2.42;;
40373;SDS011;26079;45.958;12.492;2022-08-01T00:57:05;2.70;;;2.47;;
40373;SDS011;26079;45.958;12.492;2022-08-01T00:59:31;5.25;;;3.58;;
40373;SDS011;26079;45.958;12.492;2022-08-01T01:01:57;3.80;;;2.60;;
40373;SDS011;26079;45.958;12.492;2022-08-01T01:04:22;5.68;;;2.60;;
40373;SDS011;26079;45.958;12.492;2022-08-01T01:06:52;5.95;;;2.95;;
40373;SDS011;26079;45.958;12.492;2022-08-01T01:17:39;2.75;;;2.47;;
40373;SDS011;26079;45.958;12.492;2022-08-01T01:20:12;3.05;;;2.75;;
40373;SDS011;26079;45.958;12.492;2022-08-01T01:22:47;2.55;;;2.35;;
40373;SDS011;26079;45.958;12.492;2022-08-01T01:30:46;3.67;;;3.38;;
40373;SDS011;26079;45.958;12.492;2022-08-01T01:33:15;3.20;;;2.90;;
40373;SDS011;26079;45.958;12.492;2022-08-01T01:35:45;2.38;;;2.28;;
40373;SDS011;26079;45.958;12.492;2022-08-01T01:38:14;6.47;;;2.72;;
40373;SDS011;26079;45.958;12.492;2022-08-01T01:40:45;5.28;;;3.00;;
40373;SDS011;26079;45.958;12.492;2022-08-01T01:43:14;3.22;;;2.85;;
40373;SDS011;26079;45.958;12.492;2022-08-01T01:45:41;8.50;;;3.22;;
40373;SDS011;26079;45.958;12.492;2022-08-01T01:48:09;2.75;;;2.55;;
40373;SDS011;26079;45.958;12.492;2022-08-01T01:50:37;5.88;;;2.92;;
40373;SDS011;26079;45.958;12.492;2022-08-01T01:53:04;3.20;;;2.65;;
40373;SDS011;26079;45.958;12.492;2022-08-01T01:55:31;2.67;;;2.47;;
40373;SDS011;26079;45.958;12.492;2022-08-01T01:57:59;2.63;;;2.42;;
40373;SDS011;26079;45.958;12.492;2022-08-01T02:00:26;4.50;;;2.85;;
40373;SDS011;26079;45.958;12.492;2022-08-01T02:02:54;3.08;;;2.70;;
40373;SDS011;26079;45.958;12.492;2022-08-01T02:05:21;2.80;;;2.60;;
40373;SDS011;26079;45.958;12.492;2022-08-01T02:07:49;8.38;;;3.30;;
40373;SDS011;26079;45.958;12.492;2022-08-01T02:10:15;5.32;;;3.40;;
40373;SDS011;26079;45.958;12.492;2022-08-01T02:12:43;2.88;;;2.67;;
40373;SDS011;26079;45.958;12.492;2022-08-01T02:15:11;2.53;;;2.35;;
40373;SDS011;26079;45.958;12.492;2022-08-01T02:17:44;6.05;;;2.88;;
40373;SDS011;26079;45.958;12.492;2022-08-01T02:20:13;2.85;;;2.53;;
40373;SDS011;26079;45.958;12.492;2022-08-01T02:22:42;3.58;;;2.60;;
40373;SDS011;26079;45.958;12.492;2022-08-01T02:28:20;7.55;;;3.15;;
40373;SDS011;26079;45.958;12.492;2022-08-01T02:30:53;4.47;;;3.00;;
40373;SDS011;26079;45.958;12.492;2022-08-01T02:33:24;6.82;;;3.47;;
40373;SDS011;26079;45.958;12.492;2022-08-01T02:35:58;3.65;;;3.10;;
40373;SDS011;26079;45.958;12.492;2022-08-01T02:38:27;4.07;;;3.67;;
40373;SDS011;26079;45.958;12.492;2022-08-01T02:40:58;3.75;;;2.90;;
40373;SDS011;26079;45.958;12.492;2022-08-01T02:43:27;4.57;;;2.97;;
40373;SDS011;26079;45.958;12.492;2022-08-01T02:45:56;4.03;;;3.55;;
40373;SDS011;26079;45.958;12.492;2022-08-01T02:48:25;3.03;;;2.78;;
40373;SDS011;26079;45.958;12.492;2022-08-01T02:50:52;3.20;;;2.95;;
40373;SDS011;26079;45.958;12.492;2022-08-01T02:53:21;3.28;;;3.05;;
40373;SDS011;26079;45.958;12.492;2022-08-01T02:55:50;3.75;;;3.38;;
40373;SDS011;26079;45.958;12.492;2022-08-01T02:58:18;3.45;;;3.03;;
40373;SDS011;26079;45.958;12.492;2022-08-01T03:00:46;7.07;;;3.83;;
40373;SDS011;26079;45.958;12.492;2022-08-01T03:03:13;5.03;;;3.50;;
40373;SDS011;26079;45.958;12.492;2022-08-01T03:05:40;3.30;;;3.10;;
40373;SDS011;26079;45.958;12.492;2022-08-01T03:08:07;5.35;;;3.60;;
40373;SDS011;26079;45.958;12.492;2022-08-01T03:10:36;3.45;;;3.15;;
40373;SDS011;26079;45.958;12.492;2022-08-01T03:13:03;3.33;;;3.00;;
40373;SDS011;26079;45.958;12.492;2022-08-01T03:15:32;3.30;;;3.00;;
40373;SDS011;26079;45.958;12.492;2022-08-01T03:18:00;11.07;;;3.88;;
40373;SDS011;26079;45.958;12.492;2022-08-01T03:20:29;5.05;;;3.10;;
40373;SDS011;26079;45.958;12.492;2022-08-01T03:22:57;5.85;;;4.25;;
40373;SDS011;26079;45.958;12.492;2022-08-01T03:25:26;5.45;;;3.42;;
40373;SDS011;26079;45.958;12.492;2022-08-01T03:27:54;4.03;;;3.60;;
40373;SDS011;26079;45.958;12.492;2022-08-01T03:30:23;4.05;;;3.10;;
40373;SDS011;26079;45.958;12.492;2022-08-01T03:32:51;3.55;;;3.25;;
40373;SDS011;26079;45.958;12.492;2022-08-01T03:35:17;3.35;;;3.15;;
40373;SDS011;26079;45.958;12.492;2022-08-01T03:37:44;3.60;;;3.30;;
40373;SDS011;26079;45.958;12.492;2022-08-01T03:40:17;13.45;;;4.40;;
40373;SDS011;26079;45.958;12.492;2022-08-01T03:42:49;4.18;;;2.92;;
40373;SDS011;26079;45.958;12.492;2022-08-01T03:45:19;3.75;;;3.25;;
40373;SDS011;26079;45.958;12.492;2022-08-01T03:47:48;3.75;;;3.45;;
40373;SDS011;26079;45.958;12.492;2022-08-01T03:50:19;3.40;;;3.10;;
40373;SDS011;26079;45.958;12.492;2022-08-01T03:52:47;3.53;;;3.25;;
40373;SDS011;26079;45.958;12.492;2022-08-01T03:55:15;3.33;;;3.13;;
40373;SDS011;26079;45.958;12.492;2022-08-01T03:57:43;4.43;;;3.33;;
40373;SDS011;26079;45.958;12.492;2022-08-01T04:00:11;4.65;;;4.28;;
40373;SDS011;26079;45.958;12.492;2022-08-01T04:02:37;3.78;;;3.47;;
40373;SDS011;26079;45.958;12.492;2022-08-01T04:05:03;4.43;;;3.38;;
40373;SDS011;26079;45.958;12.492;2022-08-01T04:07:31;6.13;;;3.45;;
40373;SDS011;26079;45.958;12.492;2022-08-01T04:09:58;14.73;;;4.05;;
40373;SDS011;26079;45.958;12.492;2022-08-01T04:12:24;7.78;;;3.45;;
40373;SDS011;26079;45.958;12.492;2022-08-01T04:14:49;4.38;;;3.70;;
40373;SDS011;26079;45.958;12.492;2022-08-01T04:17:16;8.18;;;3.33;;
40373;SDS011;26079;45.958;12.492;2022-08-01T04:19:42;5.97;;;3.35;;
40373;SDS011;26079;45.958;12.492;2022-08-01T04:22:09;3.50;;;3.15;;
40373;SDS011;26079;45.958;12.492;2022-08-01T04:24:38;4.68;;;3.15;;
40373;SDS011;26079;45.958;12.492;2022-08-01T04:27:08;3.40;;;2.90;;
40373;SDS011;26079;45.958;12.492;2022-08-01T04:29:38;6.20;;;3.90;;
40373;SDS011;26079;45.958;12.492;2022-08-01T04:32:06;4.07;;;3.03;;
40373;SDS011;26079;45.958;12.492;2022-08-01T04:34:35;3.83;;;3.45;;
40373;SDS011;26079;45.958;12.492;2022-08-01T04:37:03;6.35;;;3.53;;
40373;SDS011;26079;45.958;12.492;2022-08-01T04:39:31;3.20;;;2.90;;
40373;SDS011;26079;45.958;12.492;2022-08-01T04:41:59;5.07;;;3.28;;
40373;SDS011;26079;45.958;12.492;2022-08-01T04:44:28;3.60;;;2.67;;
40373;SDS011;26079;45.958;12.492;2022-08-01T04:46:57;6.07;;;3.22;;
40373;SDS011;26079;45.958;12.492;2022-08-01T04:49:29;4.70;;;2.92;;
40373;SDS011;26079;45.958;12.492;2022-08-01T04:51:57;7.22;;;3.50;;
40373;SDS011;26079;45.958;12.492;2022-08-01T04:54:25;2.83;;;2.63;;
40373;SDS011;26079;45.958;12.492;2022-08-01T04:56:59;3.40;;;2.53;;
40373;SDS011;26079;45.958;12.492;2022-08-01T04:59:43;3.22;;;2.50;;
40373;SDS011;26079;45.958;12.492;2022-08-01T05:02:14;3.92;;;2.85;;
40373;SDS011;26079;45.958;12.492;2022-08-01T05:04:43;3.20;;;2.40;;
40373;SDS011;26079;45.958;12.492;2022-08-01T05:07:10;2.70;;;2.50;;
40373;SDS011;26079;45.958;12.492;2022-08-01T05:09:37;12.05;;;3.53;;
40373;SDS011;26079;45.958;12.492;2022-08-01T05:12:03;10.77;;;2.92;;
40373;SDS011;26079;45.958;12.492;2022-08-01T05:14:30;5.57;;;3.00;;
40373;SDS011;26079;45.958;12.492;2022-08-01T05:16:57;4.78;;;2.63;;
40373;SDS011;26079;45.958;12.492;2022-08-01T05:19:24;5.70;;;2.67;;
40373;SDS011;26079;45.958;12.492;2022-08-01T05:21:51;3.63;;;3.10;;
40373;SDS011;26079;45.958;12.492;2022-08-01T05:24:17;2.58;;;2.38;;
40373;SDS011;26079;45.958;12.492;2022-08-01T05:26:43;5.57;;;3.08;;
40373;SDS011;26079;45.958;12.492;2022-08-01T05:29:08;9.32;;;2.65;;
40373;SDS011;26079;45.958;12.492;2022-08-01T05:31:34;6.40;;;2.75;;
40373;SDS011;26079;45.958;12.492;2022-08-01T05:34:00;11.75;;;3.40;;
40373;SDS011;26079;45.958;12.492;2022-08-01T05:36:27;3.58;;;2.60;;
40373;SDS011;26079;45.958;12.492;2022-08-01T05:38:53;4.18;;;2.95;;
40373;SDS011;26079;45.958;12.492;2022-08-01T05:41:18;4.05;;;2.83;;
40373;SDS011;26079;45.958;12.492;2022-08-01T05:43:44;6.13;;;3.13;;
40373;SDS011;26079;45.958;12.492;2022-08-01T05:46:10;5.47;;;2.80;;
40373;SDS011;26079;45.958;12.492;2022-08-01T05:48:36;6.38;;;2.67;;
40373;SDS011;26079;45.958;12.492;2022-08-01T05:51:02;4.80;;;2.50;;
40373;SDS011;26079;45.958;12.492;2022-08-01T05:53:28;7.93;;;3.00;;
40373;SDS011;26079;45.958;12.492;2022-08-01T05:55:54;7.53;;;2.28;;
40373;SDS011;26079;45.958;12.492;2022-08-01T05:58:20;13.80;;;2.47;;
40373;SDS011;26079;45.958;12.492;2022-08-01T06:00:45;6.03;;;2.50;;
40373;SDS011;26079;45.958;12.492;2022-08-01T06:03:11;3.58;;;2.50;;
40373;SDS011;26079;45.958;12.492;2022-08-01T06:05:37;12.60;;;2.85;;
40373;SDS011;26079;45.958;12.492;2022-08-01T06:08:03;7.88;;;2.55;;
40373;SDS011;26079;45.958;12.492;2022-08-01T06:10:29;4.07;;;2.60;;
40373;SDS011;26079;45.958;12.492;2022-08-01T06:12:54;5.68;;;2.08;;
40373;SDS011;26079;45.958;12.492;2022-08-01T06:15:20;3.58;;;2.58;;
40373;SDS011;26079;45.958;12.492;2022-08-01T06:17:46;9.10;;;2.55;;
40373;SDS011;26079;45.958;12.492;2022-08-01T06:20:12;4.88;;;2.75;;
40373;SDS011;26079;45.958;12.492;2022-08-01T06:22:37;10.55;;;2.67;;
40373;SDS011;26079;45.958;12.492;2022-08-01T06:25:03;4.68;;;2.50;;
40373;SDS011;26079;45.958;12.492;2022-08-01T06:27:30;3.58;;;2.45;;
40373;SDS011;26079;45.958;12.492;2022-08-01T06:29:55;6.65;;;2.95;;
40373;SDS011;26079;45.958;12.492;2022-08-01T06:32:22;7.38;;;2.67;;
40373;SDS011;26079;45.958;12.492;2022-08-01T06:34:48;4.57;;;2.33;;
40373;SDS011;26079;45.958;12.492;2022-08-01T06:37:14;3.28;;;1.83;;
40373;SDS011;26079;45.958;12.492;2022-08-01T06:39:40;6.40;;;1.92;;
40373;SDS011;26079;45.958;12.492;2022-08-01T06:42:06;2.75;;;1.90;;
40373;SDS011;26079;45.958;12.492;2022-08-01T06:44:32;4.75;;;2.03;;
40373;SDS011;26079;45.958;12.492;2022-08-01T06:46:57;3.38;;;1.65;;
40373;SDS011;26079;45.958;12.492;2022-08-01T06:49:23;6.57;;;2.28;;
40373;SDS011;26079;45.958;12.492;2022-08-01T06:51:50;3.28;;;1.77;;
40373;SDS011;26079;45.958;12.492;2022-08-01T06:54:16;2.03;;;1.83;;
40373;SDS011;26079;45.958;12.492;2022-08-01T06:56:42;1.60;;;1.50;;
40373;SDS011;26079;45.958;12.492;2022-08-01T06:59:07;1.80;;;1.65;;
40373;SDS011;26079;45.958;12.492;2022-08-01T07:01:33;4.18;;;1.77;;
40373;SDS011;26079;45.958;12.492;2022-08-01T07:04:00;5.03;;;1.92;;
40373;SDS011;26079;45.958;12.492;2022-08-01T07:06:25;2.25;;;1.75;;
40373;SDS011;26079;45.958;12.492;2022-08-01T07:08:52;2.42;;;2.08;;
40373;SDS011;26079;45.958;12.492;2022-08-01T07:11:18;7.90;;;2.28;;
40373;SDS011;26079;45.958;12.492;2022-08-01T07:13:45;6.18;;;1.90;;
40373;SDS011;26079;45.958;12.492;2022-08-01T07:16:11;3.15;;;1.75;;
40373;SDS011;26079;45.958;12.492;2022-08-01T07:18:37;3.05;;;1.98;;
40373;SDS011;26079;45.958;12.492;2022-08-01T07:21:03;4.50;;;2.30;;
40373;SDS011;26079;45.958;12.492;2022-08-01T07:23:29;2.22;;;2.00;;
40373;SDS011;26079;45.958;12.492;2022-08-01T07:25:55;2.47;;;2.00;;
40373;SDS011;26079;45.958;12.492;2022-08-01T07:28:20;2.90;;;2.25;;
40373;SDS011;26079;45.958;12.492;2022-08-01T07:30:46;3.25;;;2.35;;
40373;SDS011;26079;45.958;12.492;2022-08-01T07:33:12;2.97;;;2.05;;
40373;SDS011;26079;45.958;12.492;2022-08-01T07:35:37;2.00;;;1.77;;
40373;SDS011;26079;45.958;12.492;2022-08-01T07:38:05;2.13;;;1.92;;
40373;SDS011;26079;45.958;12.492;2022-08-01T07:40:31;1.95;;;1.77;;
40373;SDS011;26079;45.958;12.492;2022-08-01T07:42:57;1.80;;;1.65;;
40373;SDS011;26079;45.958;12.492;2022-08-01T07:45:22;2.03;;;1.83;;
40373;SDS011;26079;45.958;12.492;2022-08-01T07:47:48;2.10;;;1.70;;
40373;SDS011;26079;45.958;12.492;2022-08-01T07:50:14;10.02;;;2.67;;
40373;SDS011;26079;45.958;12.492;2022-08-01T07:52:41;5.47;;;2.15;;
40373;SDS011;26079;45.958;12.492;2022-08-01T07:55:08;4.95;;;2.33;;
40373;SDS011;26079;45.958;12.492;2022-08-01T07:57:35;3.72;;;2.22;;
40373;SDS011;26079;45.958;12.492;2022-08-01T08:00:01;5.30;;;2.30;;
40373;SDS011;26079;45.958;12.492;2022-08-01T08:02:29;3.03;;;2.03;;
40373;SDS011;26079;45.958;12.492;2022-08-01T08:04:54;2.55;;;2.22;;
40373;SDS011;26079;45.958;12.492;2022-08-01T08:07:20;5.30;;;1.85;;
40373;SDS011;26079;45.958;12.492;2022-08-01T08:09:46;1.90;;;1.70;;
40373;SDS011;26079;45.958;12.492;2022-08-01T08:12:11;3.35;;;2.47;;
40373;SDS011;26079;45.958;12.492;2022-08-01T08:14:37;3.22;;;1.95;;
40373;SDS011;26079;45.958;12.492;2022-08-01T08:17:03;1.52;;;1.33;;
40373;SDS011;26079;45.958;12.492;2022-08-01T08:19:30;6.60;;;1.98;;
40373;SDS011;26079;45.958;12.492;2022-08-01T08:21:58;2.25;;;1.92;;
40373;SDS011;26079;45.958;12.492;2022-08-01T08:24:24;4.07;;;1.83;;
40373;SDS011;26079;45.958;12.492;2022-08-01T08:26:52;8.23;;;3.17;;
40373;SDS011;26079;45.958;12.492;2022-08-01T08:29:22;4.65;;;1.33;;
40373;SDS011;26079;45.958;12.492;2022-08-01T08:31:49;2.30;;;1.77;;
40373;SDS011;26079;45.958;12.492;2022-08-01T08:34:17;2.28;;;1.83;;
40373;SDS011;26079;45.958;12.492;2022-08-01T08:36:42;4.00;;;2.67;;
40373;SDS011;26079;45.958;12.492;2022-08-01T08:39:08;2.47;;;1.70;;
40373;SDS011;26079;45.958;12.492;2022-08-01T08:41:34;3.65;;;2.10;;
40373;SDS011;26079;45.958;12.492;2022-08-01T08:44:01;2.42;;;2.00;;
40373;SDS011;26079;45.958;12.492;2022-08-01T08:46:31;2.53;;;2.22;;
40373;SDS011;26079;45.958;12.492;2022-08-01T08:49:01;4.45;;;2.33;;
40373;SDS011;26079;45.958;12.492;2022-08-01T08:51:30;3.75;;;2.45;;
40373;SDS011;26079;45.958;12.492;2022-08-01T08:53:58;5.50;;;2.10;;
40373;SDS011;26079;45.958;12.492;2022-08-01T08:56:27;3.47;;;2.22;;
40373;SDS011;26079;45.958;12.492;2022-08-01T08:58:58;4.78;;;2.30;;
40373;SDS011;26079;45.958;12.492;2022-08-01T09:01:25;4.75;;;2.50;;
40373;SDS011;26079;45.958;12.492;2022-08-01T09:03:51;4.78;;;2.05;;
40373;SDS011;26079;45.958;12.492;2022-08-01T09:06:18;2.20;;;2.00;;
40373;SDS011;26079;45.958;12.492;2022-08-01T09:08:44;4.95;;;2.25;;
40373;SDS011;26079;45.958;12.492;2022-08-01T09:11:11;3.17;;;2.05;;
40373;SDS011;26079;45.958;12.492;2022-08-01T09:13:37;4.40;;;2.03;;
40373;SDS011;26079;45.958;12.492;2022-08-01T09:16:02;2.65;;;1.70;;
40373;SDS011;26079;45.958;12.492;2022-08-01T09:18:34;3.60;;;2.05;;
40373;SDS011;26079;45.958;12.492;2022-08-01T09:21:10;2.47;;;2.10;;
40373;SDS011;26079;45.958;12.492;2022-08-01T09:23:50;2.85;;;1.92;;
40373;SDS011;26079;45.958;12.492;2022-08-01T09:26:18;2.78;;;2.15;;
40373;SDS011;26079;45.958;12.492;2022-08-01T09:28:45;4.82;;;1.98;;
40373;SDS011;26079;45.958;12.492;2022-08-01T09:31:16;7.38;;;2.05;;
40373;SDS011;26079;45.958;12.492;2022-08-01T09:34:01;2.45;;;1.77;;
40373;SDS011;26079;45.958;12.492;2022-08-01T09:39:16;2.75;;;2.45;;
40373;SDS011;26079;45.958;12.492;2022-08-01T09:41:43;4.00;;;2.40;;
40373;SDS011;26079;45.958;12.492;2022-08-01T09:44:09;3.67;;;2.38;;
40373;SDS011;26079;45.958;12.492;2022-08-01T09:46:35;13.52;;;3.17;;
40373;SDS011;26079;45.958;12.492;2022-08-01T09:49:05;8.85;;;2.53;;
40373;SDS011;26079;45.958;12.492;2022-08-01T09:51:39;6.28;;;2.50;;
40373;SDS011;26079;45.958;12.492;2022-08-01T09:54:06;4.55;;;2.35;;
40373;SDS011;26079;45.958;12.492;2022-08-01T09:56:37;2.80;;;2.60;;
40373;SDS011;26079;45.958;12.492;2022-08-01T09:59:04;6.95;;;2.90;;
40373;SDS011;26079;45.958;12.492;2022-08-01T10:01:47;4.10;;;2.28;;
40373;SDS011;26079;45.958;12.492;2022-08-01T10:04:18;4.43;;;2.47;;
40373;SDS011;26079;45.958;12.492;2022-08-01T10:06:46;2.80;;;2.30;;
40373;SDS011;26079;45.958;12.492;2022-08-01T10:12:02;4.55;;;2.38;;
40373;SDS011;26079;45.958;12.492;2022-08-01T10:14:28;11.63;;;3.22;;
40373;SDS011;26079;45.958;12.492;2022-08-01T10:16:55;2.55;;;2.33;;
40373;SDS011;26079;45.958;12.492;2022-08-01T10:19:23;5.13;;;2.67;;
40373;SDS011;26079;45.958;12.492;2022-08-01T10:21:51;2.13;;;1.88;;
40373;SDS011;26079;45.958;12.492;2022-08-01T10:24:21;3.03;;;2.03;;
40373;SDS011;26079;45.958;12.492;2022-08-01T10:26:51;1.92;;;1.83;;
40373;SDS011;26079;45.958;12.492;2022-08-01T10:29:21;4.60;;;2.53;;
40373;SDS011;26079;45.958;12.492;2022-08-01T10:31:49;5.75;;;2.10;;
40373;SDS011;26079;45.958;12.492;2022-08-01T10:34:16;3.75;;;2.63;;
40373;SDS011;26079;45.958;12.492;2022-08-01T10:36:45;3.15;;;2.25;;
40373;SDS011;26079;45.958;12.492;2022-08-01T10:39:12;4.38;;;2.33;;
40373;SDS011;26079;45.958;12.492;2022-08-01T10:41:39;8.63;;;2.58;;
40373;SDS011;26079;45.958;12.492;2022-08-01T10:44:09;3.50;;;2.25;;
40373;SDS011;26079;45.958;12.492;2022-08-01T10:46:39;6.47;;;2.42;;
40373;SDS011;26079;45.958;12.492;2022-08-01T10:49:10;3.38;;;2.10;;
40373;SDS011;26079;45.958;12.492;2022-08-01T10:51:39;2.45;;;1.90;;
40373;SDS011;26079;45.958;12.492;2022-08-01T10:54:07;2.33;;;1.95;;
40373;SDS011;26079;45.958;12.492;2022-08-01T10:56:44;3.00;;;2.08;;
40373;SDS011;26079;45.958;12.492;2022-08-01T10:59:15;1.77;;;1.67;;
40373;SDS011;26079;45.958;12.492;2022-08-01T11:02:01;6.20;;;2.30;;
40373;SDS011;26079;45.958;12.492;2022-08-01T11:07:06;2.83;;;2.03;;
40373;SDS011;26079;45.958;12.492;2022-08-01T11:20:15;5.80;;;2.40;;
40373;SDS011;26079;45.958;12.492;2022-08-01T11:30:43;9.18;;;2.25;;
40373;SDS011;26079;45.958;12.492;2022-08-01T11:33:13;5.28;;;2.15;;
40373;SDS011;26079;45.958;12.492;2022-08-01T11:41:25;4.18;;;2.30;;
40373;SDS011;26079;45.958;12.492;2022-08-01T11:49:26;2.10;;;1.90;;
40373;SDS011;26079;45.958;12.492;2022-08-01T11:54:38;8.30;;;2.65;;
40373;SDS011;26079;45.958;12.492;2022-08-01T11:57:27;3.97;;;2.28;;
40373;SDS011;26079;45.958;12.492;2022-08-01T11:59:58;5.28;;;2.58;;
40373;SDS011;26079;45.958;12.492;2022-08-01T12:02:25;3.13;;;2.20;;
40373;SDS011;26079;45.958;12.492;2022-08-01T12:07:26;2.53;;;2.10;;
40373;SDS011;26079;45.958;12.492;2022-08-01T12:10:12;5.68;;;2.28;;
40373;SDS011;26079;45.958;12.492;2022-08-01T12:15:13;5.50;;;2.22;;
40373;SDS011;26079;45.958;12.492;2022-08-01T12:17:41;2.75;;;1.90;;
40373;SDS011;26079;45.958;12.492;2022-08-01T12:20:09;3.40;;;2.05;;
40373;SDS011;26079;45.958;12.492;2022-08-01T12:22:36;4.93;;;2.30;;
40373;SDS011;26079;45.958;12.492;2022-08-01T12:25:12;3.53;;;1.95;;
40373;SDS011;26079;45.958;12.492;2022-08-01T12:27:40;7.82;;;1.65;;
40373;SDS011;26079;45.958;12.492;2022-08-01T12:30:08;3.13;;;2.13;;
40373;SDS011;26079;45.958;12.492;2022-08-01T12:32:36;2.65;;;1.85;;
40373;SDS011;26079;45.958;12.492;2022-08-01T12:35:08;1.67;;;1.58;;
40373;SDS011;26079;45.958;12.492;2022-08-01T12:37:36;5.47;;;2.03;;
40373;SDS011;26079;45.958;12.492;2022-08-01T12:40:13;2.00;;;1.80;;
40373;SDS011;26079;45.958;12.492;2022-08-01T12:42:42;9.38;;;2.65;;
40373;SDS011;26079;45.958;12.492;2022-08-01T12:45:10;1.70;;;1.40;;
40373;SDS011;26079;45.958;12.492;2022-08-01T12:47:40;4.28;;;1.88;;
40373;SDS011;26079;45.958;12.492;2022-08-01T12:50:08;3.05;;;1.40;;
40373;SDS011;26079;45.958;12.492;2022-08-01T12:52:38;3.55;;;1.65;;
40373;SDS011;26079;45.958;12.492;2022-08-01T12:55:08;3.55;;;1.80;;
40373;SDS011;26079;45.958;12.492;2022-08-01T12:57:36;2.05;;;1.65;;
40373;SDS011;26079;45.958;12.492;2022-08-01T13:02:42;1.83;;;1.40;;
40373;SDS011;26079;45.958;12.492;2022-08-01T13:05:09;2.42;;;1.50;;
40373;SDS011;26079;45.958;12.492;2022-08-01T13:07:36;4.22;;;2.17;;
40373;SDS011;26079;45.958;12.492;2022-08-01T13:10:03;7.40;;;1.63;;
40373;SDS011;26079;45.958;12.492;2022-08-01T13:12:30;1.83;;;1.70;;
40373;SDS011;26079;45.958;12.492;2022-08-01T13:14:56;5.18;;;1.95;;
40373;SDS011;26079;45.958;12.492;2022-08-01T13:17:40;2.03;;;1.55;;
40373;SDS011;26079;45.958;12.492;2022-08-01T13:20:06;1.88;;;1.60;;
40373;SDS011;26079;45.958;12.492;2022-08-01T13:22:32;5.95;;;1.75;;
40373;SDS011;26079;45.958;12.492;2022-08-01T13:25:15;1.38;;;1.27;;
40373;SDS011;26079;45.958;12.492;2022-08-01T13:27:41;3.58;;;1.83;;
40373;SDS011;26079;45.958;12.492;2022-08-01T13:30:14;2.30;;;1.60;;
40373;SDS011;26079;45.958;12.492;2022-08-01T13:32:57;3.50;;;1.77;;
40373;SDS011;26079;45.958;12.492;2022-08-01T13:35:26;5.63;;;1.80;;
40373;SDS011;26079;45.958;12.492;2022-08-01T13:37:52;3.92;;;1.40;;
40373;SDS011;26079;45.958;12.492;2022-08-01T13:40:25;9.60;;;1.40;;
40373;SDS011;26079;45.958;12.492;2022-08-01T13:42:55;2.47;;;1.90;;
40373;SDS011;26079;45.958;12.492;2022-08-01T13:45:21;1.25;;;1.10;;
40373;SDS011;26079;45.958;12.492;2022-08-01T13:47:47;2.22;;;1.30;;
40373;SDS011;26079;45.958;12.492;2022-08-01T13:50:13;2.10;;;1.10;;
40373;SDS011;26079;45.958;12.492;2022-08-01T13:52:39;1.45;;;1.33;;
40373;SDS011;26079;45.958;12.492;2022-08-01T13:55:05;1.80;;;1.27;;
40373;SDS011;26079;45.958;12.492;2022-08-01T13:57:31;3.25;;;2.17;;
40373;SDS011;26079;45.958;12.492;2022-08-01T13:59:57;4.55;;;1.70;;
40373;SDS011;26079;45.958;12.492;2022-08-01T14:02:25;7.50;;;1.30;;
40373;SDS011;26079;45.958;12.492;2022-08-01T14:04:52;3.35;;;1.60;;
40373;SDS011;26079;45.958;12.492;2022-08-01T14:07:19;3.95;;;1.75;;
40373;SDS011;26079;45.958;12.492;2022-08-01T14:09:45;3.63;;;1.48;;
40373;SDS011;26079;45.958;12.492;2022-08-01T14:12:11;2.33;;;1.50;;
40373;SDS011;26079;45.958;12.492;2022-08-01T14:14:36;3.17;;;1.98;;
40373;SDS011;26079;45.958;12.492;2022-08-01T14:17:03;2.22;;;1.70;;
40373;SDS011;26079;45.958;12.492;2022-08-01T14:19:29;3.78;;;1.73;;
40373;SDS011;26079;45.958;12.492;2022-08-01T14:21:55;8.70;;;2.05;;
40373;SDS011;26079;45.958;12.492;2022-08-01T14:24:22;2.83;;;1.55;;
40373;SDS011;26079;45.958;12.492;2022-08-01T14:26:48;5.93;;;2.28;;
40373;SDS011;26079;45.958;12.492;2022-08-01T14:29:14;2.78;;;1.75;;
40373;SDS011;26079;45.958;12.492;2022-08-01T14:31:40;2.28;;;1.50;;
40373;SDS011;26079;45.958;12.492;2022-08-01T14:34:05;3.95;;;1.80;;
40373;SDS011;26079;45.958;12.492;2022-08-01T14:36:31;2.80;;;1.48;;
40373;SDS011;26079;45.958;12.492;2022-08-01T14:38:58;5.53;;;1.70;;
40373;SDS011;26079;45.958;12.492;2022-08-01T14:41:24;1.80;;;1.63;;
40373;SDS011;26079;45.958;12.492;2022-08-01T14:43:49;1.63;;;1.52;;
40373;SDS011;26079;45.958;12.492;2022-08-01T14:46:15;3.00;;;1.88;;
40373;SDS011;26079;45.958;12.492;2022-08-01T14:48:41;4.88;;;2.10;;
40373;SDS011;26079;45.958;12.492;2022-08-01T14:51:07;1.85;;;1.40;;
40373;SDS011;26079;45.958;12.492;2022-08-01T14:53:33;4.65;;;1.40;;
40373;SDS011;26079;45.958;12.492;2022-08-01T14:56:01;2.28;;;1.80;;
40373;SDS011;26079;45.958;12.492;2022-08-01T14:58:30;4.28;;;1.50;;
40373;SDS011;26079;45.958;12.492;2022-08-01T15:00:56;3.35;;;1.63;;
40373;SDS011;26079;45.958;12.492;2022-08-01T15:03:22;5.07;;;1.60;;
40373;SDS011;26079;45.958;12.492;2022-08-01T15:05:48;1.50;;;1.40;;
40373;SDS011;26079;45.958;12.492;2022-08-01T15:08:13;1.67;;;1.33;;
40373;SDS011;26079;45.958;12.492;2022-08-01T15:10:39;3.42;;;1.15;;
40373;SDS011;26079;45.958;12.492;2022-08-01T15:13:05;1.48;;;1.38;;
40373;SDS011;26079;45.958;12.492;2022-08-01T15:15:30;2.58;;;1.23;;
40373;SDS011;26079;45.958;12.492;2022-08-01T15:17:56;2.40;;;1.10;;
40373;SDS011;26079;45.958;12.492;2022-08-01T15:20:22;2.13;;;1.23;;
40373;SDS011;26079;45.958;12.492;2022-08-01T15:22:48;1.88;;;1.25;;
40373;SDS011;26079;45.958;12.492;2022-08-01T15:25:14;4.35;;;1.60;;
40373;SDS011;26079;45.958;12.492;2022-08-01T15:27:39;3.80;;;1.63;;
40373;SDS011;26079;45.958;12.492;2022-08-01T15:30:05;4.22;;;1.77;;
40373;SDS011;26079;45.958;12.492;2022-08-01T15:32:32;1.45;;;0.90;;
40373;SDS011;26079;45.958;12.492;2022-08-01T15:34:58;1.70;;;1.23;;
40373;SDS011;26079;45.958;12.492;2022-08-01T15:37:23;1.77;;;1.45;;
40373;SDS011;26079;45.958;12.492;2022-08-01T15:39:49;9.15;;;1.63;;
40373;SDS011;26079;45.958;12.492;2022-08-01T15:42:16;1.80;;;1.40;;